Terminal Aerodrome Forecast
Issued by NWS

Home | Current Version | Previous Version | Graphics & Text | Print | Product List | Glossary On
Versions: 1 2 3 4 5 6 7 8 9 10 11 12 13 14 15 16 17
000
FTUS43 KBIS 251500 AAA
TAFDIK
TAF AMD
KDIK 251502Z 2515/2612 03013KT 5SM -SN SCT004 OVC025
      TEMPO 2515/2517 2SM -SN
     FM252000 35013KT P6SM SCT035 BKN100
     FM252200 34011KT P6SM SCT100
     FM260100 33009KT P6SM SKC=

USA.gov is the U.S. government's official web portal to all federal, state and local government web resources and services.